createdAt,value
2019-04-14T04:00:03.210Z,72.03
2019-04-14T04:02:35.968Z,72.45
2019-04-14T04:05:08.587Z,72.08
2019-04-14T04:07:41.009Z,72.02
2019-04-14T04:10:14.213Z,71.82
2019-04-14T04:12:46.493Z,71.91
2019-04-14T04:15:19.181Z,71.45
2019-04-14T04:17:52.365Z,71.65
2019-04-14T04:20:26.383Z,71.41
2019-04-14T04:22:59.391Z,71.80
2019-04-14T04:25:33.280Z,72.05
2019-04-14T04:28:25.642Z,71.96
2019-04-14T04:31:05.373Z,72.01
2019-04-14T04:33:55.175Z,72.15
2019-04-14T04:36:44.675Z,71.96
2019-04-14T04:39:21.428Z,71.72
2019-04-14T12:23:41.116Z,64.43
2019-04-14T12:26:13.840Z,64.55
2019-04-14T12:28:45.441Z,64.46
2019-04-14T12:31:17.430Z,64.26
2019-04-14T12:33:49.221Z,64.14
2019-04-14T12:36:20.976Z,64.17
2019-04-14T12:38:53.142Z,64.28
2019-04-14T12:41:33.224Z,64.15
2019-04-14T12:44:18.671Z,63.99
2019-04-14T12:46:52.105Z,63.92
2019-04-14T12:49:25.572Z,63.79
2019-04-14T12:52:01.736Z,63.66
2019-04-14T12:54:33.592Z,63.54
2019-04-14T12:57:05.153Z,63.51
2019-04-14T12:59:37.130Z,63.45
2019-04-14T13:02:11.312Z,63.42
2019-04-14T13:04:43.384Z,63.48
2019-04-14T13:07:15.860Z,63.81
2019-04-14T13:09:47.833Z,63.67
2019-04-14T13:12:19.888Z,63.50
2019-04-14T13:14:51.797Z,63.75
2019-04-14T13:17:23.899Z,64.13
2019-04-14T13:19:55.514Z,64.07
2019-04-14T13:22:33.910Z,64.30
2019-04-14T13:25:02.670Z,64.00
2019-04-14T13:27:35.423Z,64.35
2019-04-14T13:30:10.046Z,64.32
2019-04-14T13:32:41.513Z,64.27
2019-04-14T13:35:13.633Z,64.40
2019-04-14T16:39:34.259Z,65.89
2019-04-14T16:42:06.086Z,66.09
2019-04-14T16:44:37.777Z,65.92
2019-04-14T16:47:09.628Z,66.07
2019-04-14T16:49:41.489Z,65.79
2019-04-14T16:52:14.664Z,65.75
2019-04-14T16:54:57.282Z,65.03
2019-04-14T16:57:48.015Z,65.20
2019-04-14T17:00:30.253Z,65.20
2019-04-14T17:03:02.176Z,65.12
2019-04-14T17:05:34.952Z,65.04
2019-04-14T17:08:06.595Z,65.08
2019-04-14T17:10:38.478Z,65.16
2019-04-14T17:13:11.712Z,64.88
2019-04-14T17:15:45.258Z,65.27
2019-04-14T17:18:20.295Z,65.07
2019-04-14T17:21:10.369Z,64.88
2019-04-14T17:23:46.730Z,65.21
2019-04-14T17:26:20.136Z,65.10
2019-04-14T17:29:09.681Z,64.66
2019-04-14T17:31:58.582Z,64.74
2019-04-14T17:34:34.788Z,64.73
2019-04-14T17:37:17.145Z,64.53
2019-04-14T17:39:59.595Z,64.56
2019-04-14T17:42:33.235Z,64.51
2019-04-14T17:45:08.850Z,64.68
2019-04-14T17:47:45.583Z,64.73
2019-04-14T17:50:21.062Z,64.96
2019-04-14T17:52:54.585Z,64.78
2019-04-14T17:55:34.327Z,64.71
2019-04-14T17:58:10.846Z,64.78
2019-04-14T18:00:56.018Z,64.97
2019-04-14T18:03:38.830Z,64.68
2019-04-14T18:06:12.224Z,64.74
2019-04-14T18:08:45.486Z,64.97
2019-04-14T18:11:24.963Z,65.17
2019-04-14T18:14:01.462Z,65.05
2019-04-14T18:16:37.998Z,65.53
2019-04-14T18:19:19.859Z,65.67
2019-04-14T18:21:51.756Z,65.55
2019-04-14T18:24:23.717Z,65.69
2019-04-14T18:26:55.470Z,65.80
2019-04-14T18:29:37.525Z,65.81
2019-04-14T18:32:16.813Z,65.80
2019-04-14T18:35:05.480Z,65.62
2019-04-14T18:37:55.520Z,65.78
2019-04-14T18:40:45.155Z,65.82
2019-04-14T18:43:24.402Z,66.03
2019-04-14T18:45:57.964Z,66.26
2019-04-14T18:48:40.481Z,66.43
2019-04-14T18:51:20.254Z,66.46
2019-04-14T18:53:56.594Z,66.48
2019-04-14T18:56:32.548Z,66.46
2019-04-14T18:59:20.989Z,66.53
2019-04-14T19:01:54.383Z,66.45
2019-04-14T19:04:26.143Z,66.62
2019-04-14T19:06:57.902Z,66.52
2019-04-14T19:09:29.636Z,66.81
2019-04-14T19:12:06.048Z,66.80
2019-04-14T19:14:39.428Z,66.95
2019-04-14T19:17:28.188Z,67.12
2019-04-14T19:20:02.310Z,67.17
2019-04-14T19:22:34.160Z,67.42
2019-04-14T19:25:08.389Z,67.86
2019-04-14T19:27:40.164Z,68.12
2019-04-14T19:30:12.100Z,68.43
2019-04-14T19:32:43.678Z,68.84
2019-04-14T19:35:15.524Z,69.49
2019-04-14T19:37:47.164Z,69.85
2019-04-14T19:40:18.621Z,70.53
2019-04-14T19:42:50.275Z,70.86
2019-04-14T19:45:21.822Z,71.28
2019-04-14T19:47:53.748Z,71.81
2019-04-14T19:50:25.551Z,72.07
2019-04-14T19:52:57.403Z,72.76
2019-04-14T19:55:29.039Z,73.10
2019-04-14T19:58:00.832Z,73.36
2019-04-14T20:00:32.475Z,73.39
2019-04-14T20:03:03.921Z,74.39
2019-04-14T20:05:35.680Z,74.62
2019-04-14T20:08:07.553Z,74.86
2019-04-14T20:10:38.921Z,75.05
2019-04-14T20:13:10.862Z,75.25
2019-04-14T20:15:43.965Z,75.56
2019-04-14T20:18:23.230Z,75.69
2019-04-14T20:20:59.558Z,75.71
2019-04-14T20:23:52.040Z,75.89
